sensor_id;sensor_type;location;lat;lon;timestamp;P1;durP1;ratioP1;P2;durP2;ratioP2
22752;SDS011;11543;43.144;24.684;2023-06-05T00:00:40;8.93;;;5.70;;
22752;SDS011;11543;43.144;24.684;2023-06-05T00:03:05;12.48;;;6.43;;
22752;SDS011;11543;43.144;24.684;2023-06-05T00:05:34;10.20;;;6.50;;
22752;SDS011;11543;43.144;24.684;2023-06-05T00:07:59;9.48;;;5.70;;
22752;SDS011;11543;43.144;24.684;2023-06-05T00:10:25;10.45;;;5.88;;
22752;SDS011;11543;43.144;24.684;2023-06-05T00:12:50;7.90;;;6.20;;
22752;SDS011;11543;43.144;24.684;2023-06-05T00:15:16;8.88;;;6.07;;
22752;SDS011;11543;43.144;24.684;2023-06-05T00:17:44;11.10;;;6.25;;
22752;SDS011;11543;43.144;24.684;2023-06-05T00:20:10;11.15;;;6.82;;
22752;SDS011;11543;43.144;24.684;2023-06-05T00:22:36;11.25;;;6.82;;
22752;SDS011;11543;43.144;24.684;2023-06-05T00:25:04;11.05;;;7.05;;
22752;SDS011;11543;43.144;24.684;2023-06-05T00:27:30;11.63;;;6.82;;
22752;SDS011;11543;43.144;24.684;2023-06-05T00:29:56;13.40;;;6.97;;
22752;SDS011;11543;43.144;24.684;2023-06-05T00:32:21;14.38;;;7.15;;
22752;SDS011;11543;43.144;24.684;2023-06-05T00:34:47;11.90;;;6.78;;
22752;SDS011;11543;43.144;24.684;2023-06-05T00:37:15;10.75;;;7.25;;
22752;SDS011;11543;43.144;24.684;2023-06-05T00:39:41;13.20;;;7.43;;
22752;SDS011;11543;43.144;24.684;2023-06-05T00:42:07;12.65;;;6.70;;
22752;SDS011;11543;43.144;24.684;2023-06-05T00:44:34;10.13;;;7.30;;
22752;SDS011;11543;43.144;24.684;2023-06-05T00:47:00;12.25;;;6.85;;
22752;SDS011;11543;43.144;24.684;2023-06-05T00:49:27;15.70;;;6.30;;
22752;SDS011;11543;43.144;24.684;2023-06-05T00:51:53;10.98;;;6.65;;
22752;SDS011;11543;43.144;24.684;2023-06-05T00:54:19;9.90;;;6.20;;
22752;SDS011;11543;43.144;24.684;2023-06-05T00:56:47;11.48;;;6.38;;
22752;SDS011;11543;43.144;24.684;2023-06-05T00:59:13;14.10;;;6.40;;
22752;SDS011;11543;43.144;24.684;2023-06-05T01:01:39;12.68;;;6.65;;
22752;SDS011;11543;43.144;24.684;2023-06-05T01:04:07;11.95;;;6.43;;
22752;SDS011;11543;43.144;24.684;2023-06-05T01:06:33;15.25;;;6.75;;
22752;SDS011;11543;43.144;24.684;2023-06-05T01:09:00;11.55;;;6.10;;
22752;SDS011;11543;43.144;24.684;2023-06-05T01:16:44;10.95;;;6.25;;
22752;SDS011;11543;43.144;24.684;2023-06-05T01:19:15;13.50;;;5.90;;
22752;SDS011;11543;43.144;24.684;2023-06-05T01:21:42;9.98;;;5.88;;
22752;SDS011;11543;43.144;24.684;2023-06-05T01:24:08;9.25;;;5.88;;
22752;SDS011;11543;43.144;24.684;2023-06-05T01:26:39;7.88;;;5.60;;
22752;SDS011;11543;43.144;24.684;2023-06-05T01:29:17;9.50;;;6.22;;
22752;SDS011;11543;43.144;24.684;2023-06-05T01:31:48;11.25;;;6.07;;
22752;SDS011;11543;43.144;24.684;2023-06-05T01:34:19;10.32;;;5.97;;
22752;SDS011;11543;43.144;24.684;2023-06-05T01:36:46;10.27;;;6.30;;
22752;SDS011;11543;43.144;24.684;2023-06-05T01:39:12;13.10;;;6.72;;
22752;SDS011;11543;43.144;24.684;2023-06-05T01:41:39;11.48;;;5.85;;
22752;SDS011;11543;43.144;24.684;2023-06-05T01:44:06;11.27;;;6.68;;
22752;SDS011;11543;43.144;24.684;2023-06-05T01:46:33;10.68;;;5.72;;
22752;SDS011;11543;43.144;24.684;2023-06-05T01:48:59;8.77;;;5.95;;
22752;SDS011;11543;43.144;24.684;2023-06-05T01:51:27;11.48;;;5.72;;
22752;SDS011;11543;43.144;24.684;2023-06-05T01:53:53;9.75;;;5.50;;
22752;SDS011;11543;43.144;24.684;2023-06-05T01:56:19;10.40;;;6.07;;
22752;SDS011;11543;43.144;24.684;2023-06-05T01:58:45;11.07;;;6.65;;
22752;SDS011;11543;43.144;24.684;2023-06-05T02:01:12;10.15;;;5.95;;
22752;SDS011;11543;43.144;24.684;2023-06-05T02:03:39;11.40;;;6.10;;
22752;SDS011;11543;43.144;24.684;2023-06-05T02:06:05;11.40;;;5.70;;
22752;SDS011;11543;43.144;24.684;2023-06-05T02:08:31;8.48;;;5.97;;
22752;SDS011;11543;43.144;24.684;2023-06-05T02:10:56;8.68;;;5.57;;
22752;SDS011;11543;43.144;24.684;2023-06-05T02:13:22;10.85;;;5.82;;
22752;SDS011;11543;43.144;24.684;2023-06-05T02:15:49;9.80;;;6.10;;
22752;SDS011;11543;43.144;24.684;2023-06-05T02:18:21;10.02;;;6.00;;
22752;SDS011;11543;43.144;24.684;2023-06-05T02:20:52;9.15;;;5.78;;
22752;SDS011;11543;43.144;24.684;2023-06-05T02:23:19;7.95;;;5.35;;
22752;SDS011;11543;43.144;24.684;2023-06-05T02:25:44;10.00;;;6.18;;
22752;SDS011;11543;43.144;24.684;2023-06-05T02:28:10;9.25;;;6.22;;
22752;SDS011;11543;43.144;24.684;2023-06-05T02:30:36;10.93;;;5.70;;
22752;SDS011;11543;43.144;24.684;2023-06-05T02:33:02;7.93;;;5.97;;
22752;SDS011;11543;43.144;24.684;2023-06-05T02:35:28;10.68;;;6.25;;
22752;SDS011;11543;43.144;24.684;2023-06-05T02:37:54;8.93;;;5.43;;
22752;SDS011;11543;43.144;24.684;2023-06-05T02:40:21;10.15;;;5.82;;
22752;SDS011;11543;43.144;24.684;2023-06-05T02:42:47;9.57;;;6.32;;
22752;SDS011;11543;43.144;24.684;2023-06-05T02:45:12;9.60;;;6.53;;
22752;SDS011;11543;43.144;24.684;2023-06-05T02:47:38;11.55;;;5.88;;
22752;SDS011;11543;43.144;24.684;2023-06-05T02:50:04;11.95;;;6.00;;
22752;SDS011;11543;43.144;24.684;2023-06-05T02:52:31;14.88;;;6.00;;
22752;SDS011;11543;43.144;24.684;2023-06-05T02:55:00;12.45;;;5.55;;
22752;SDS011;11543;43.144;24.684;2023-06-05T02:57:27;9.88;;;5.95;;
22752;SDS011;11543;43.144;24.684;2023-06-05T02:59:52;13.15;;;5.68;;
22752;SDS011;11543;43.144;24.684;2023-06-05T03:02:20;8.90;;;5.60;;
22752;SDS011;11543;43.144;24.684;2023-06-05T03:04:46;12.23;;;5.38;;
22752;SDS011;11543;43.144;24.684;2023-06-05T03:07:18;8.50;;;5.78;;
22752;SDS011;11543;43.144;24.684;2023-06-05T03:09:45;8.40;;;5.50;;
22752;SDS011;11543;43.144;24.684;2023-06-05T03:12:10;14.45;;;5.75;;
22752;SDS011;11543;43.144;24.684;2023-06-05T03:14:36;14.45;;;5.68;;
22752;SDS011;11543;43.144;24.684;2023-06-05T03:17:01;15.07;;;5.90;;
22752;SDS011;11543;43.144;24.684;2023-06-05T03:19:28;10.18;;;5.15;;
22752;SDS011;11543;43.144;24.684;2023-06-05T03:21:54;13.90;;;5.28;;
22752;SDS011;11543;43.144;24.684;2023-06-05T03:24:19;12.48;;;5.70;;
22752;SDS011;11543;43.144;24.684;2023-06-05T03:26:45;9.90;;;5.80;;
22752;SDS011;11543;43.144;24.684;2023-06-05T03:29:10;13.75;;;6.78;;
22752;SDS011;11543;43.144;24.684;2023-06-05T03:31:36;12.85;;;6.28;;
22752;SDS011;11543;43.144;24.684;2023-06-05T03:34:02;11.02;;;5.97;;
22752;SDS011;11543;43.144;24.684;2023-06-05T03:36:29;12.55;;;6.00;;
22752;SDS011;11543;43.144;24.684;2023-06-05T03:39:03;10.32;;;6.15;;
22752;SDS011;11543;43.144;24.684;2023-06-05T03:41:28;8.48;;;6.03;;
22752;SDS011;11543;43.144;24.684;2023-06-05T03:43:54;9.90;;;6.30;;
22752;SDS011;11543;43.144;24.684;2023-06-05T03:46:19;8.57;;;5.95;;
22752;SDS011;11543;43.144;24.684;2023-06-05T03:48:46;12.00;;;7.10;;
22752;SDS011;11543;43.144;24.684;2023-06-05T03:51:14;14.82;;;6.70;;
22752;SDS011;11543;43.144;24.684;2023-06-05T03:53:43;16.08;;;7.38;;
22752;SDS011;11543;43.144;24.684;2023-06-05T03:56:09;12.45;;;6.35;;
22752;SDS011;11543;43.144;24.684;2023-06-05T03:58:36;10.98;;;6.63;;
22752;SDS011;11543;43.144;24.684;2023-06-05T04:01:04;14.23;;;6.82;;
22752;SDS011;11543;43.144;24.684;2023-06-05T04:03:29;13.90;;;6.68;;
22752;SDS011;11543;43.144;24.684;2023-06-05T04:05:55;15.43;;;7.07;;
22752;SDS011;11543;43.144;24.684;2023-06-05T04:08:20;14.18;;;7.05;;
22752;SDS011;11543;43.144;24.684;2023-06-05T04:10:46;12.60;;;6.75;;
22752;SDS011;11543;43.144;24.684;2023-06-05T04:13:12;11.73;;;6.57;;
22752;SDS011;11543;43.144;24.684;2023-06-05T04:15:39;10.65;;;7.65;;
22752;SDS011;11543;43.144;24.684;2023-06-05T04:18:05;11.52;;;7.30;;
22752;SDS011;11543;43.144;24.684;2023-06-05T04:20:30;12.68;;;6.72;;
22752;SDS011;11543;43.144;24.684;2023-06-05T04:22:57;12.10;;;7.57;;
22752;SDS011;11543;43.144;24.684;2023-06-05T04:25:23;13.43;;;6.78;;
22752;SDS011;11543;43.144;24.684;2023-06-05T04:27:49;12.77;;;7.03;;
22752;SDS011;11543;43.144;24.684;2023-06-05T04:30:16;12.90;;;6.60;;
22752;SDS011;11543;43.144;24.684;2023-06-05T04:32:42;11.45;;;6.90;;
22752;SDS011;11543;43.144;24.684;2023-06-05T04:35:11;14.35;;;6.85;;
22752;SDS011;11543;43.144;24.684;2023-06-05T04:37:37;16.40;;;8.23;;
22752;SDS011;11543;43.144;24.684;2023-06-05T04:40:04;13.05;;;6.72;;
22752;SDS011;11543;43.144;24.684;2023-06-05T04:42:31;12.50;;;6.72;;
22752;SDS011;11543;43.144;24.684;2023-06-05T04:44:58;12.82;;;6.85;;
22752;SDS011;11543;43.144;24.684;2023-06-05T04:47:26;19.90;;;8.50;;
22752;SDS011;11543;43.144;24.684;2023-06-05T04:49:52;15.93;;;8.23;;
22752;SDS011;11543;43.144;24.684;2023-06-05T04:52:19;17.65;;;8.27;;
22752;SDS011;11543;43.144;24.684;2023-06-05T04:54:48;14.20;;;8.55;;
22752;SDS011;11543;43.144;24.684;2023-06-05T04:57:14;16.50;;;8.88;;
22752;SDS011;11543;43.144;24.684;2023-06-05T04:59:42;15.02;;;8.75;;
22752;SDS011;11543;43.144;24.684;2023-06-05T05:02:07;13.75;;;8.25;;
22752;SDS011;11543;43.144;24.684;2023-06-05T05:04:34;16.63;;;8.65;;
22752;SDS011;11543;43.144;24.684;2023-06-05T05:07:00;13.88;;;7.97;;
22752;SDS011;11543;43.144;24.684;2023-06-05T05:09:29;17.13;;;7.72;;
22752;SDS011;11543;43.144;24.684;2023-06-05T05:11:56;12.43;;;8.07;;
22752;SDS011;11543;43.144;24.684;2023-06-05T05:14:27;11.18;;;7.82;;
22752;SDS011;11543;43.144;24.684;2023-06-05T05:16:53;13.07;;;7.35;;
22752;SDS011;11543;43.144;24.684;2023-06-05T05:19:20;11.50;;;7.43;;
22752;SDS011;11543;43.144;24.684;2023-06-05T05:21:47;12.57;;;7.10;;
22752;SDS011;11543;43.144;24.684;2023-06-05T05:24:13;11.32;;;7.45;;
22752;SDS011;11543;43.144;24.684;2023-06-05T05:26:38;9.50;;;6.00;;
22752;SDS011;11543;43.144;24.684;2023-06-05T05:29:07;10.85;;;6.05;;
22752;SDS011;11543;43.144;24.684;2023-06-05T05:31:34;10.45;;;5.80;;
22752;SDS011;11543;43.144;24.684;2023-06-05T05:33:59;8.77;;;5.40;;
22752;SDS011;11543;43.144;24.684;2023-06-05T05:36:26;8.70;;;5.13;;
22752;SDS011;11543;43.144;24.684;2023-06-05T05:38:52;7.85;;;5.00;;
22752;SDS011;11543;43.144;24.684;2023-06-05T05:41:18;6.65;;;4.95;;
22752;SDS011;11543;43.144;24.684;2023-06-05T05:43:44;6.35;;;4.30;;
22752;SDS011;11543;43.144;24.684;2023-06-05T05:46:10;6.82;;;4.32;;
22752;SDS011;11543;43.144;24.684;2023-06-05T05:48:36;7.85;;;4.38;;
22752;SDS011;11543;43.144;24.684;2023-06-05T05:51:01;7.80;;;4.50;;
22752;SDS011;11543;43.144;24.684;2023-06-05T05:53:27;11.98;;;4.30;;
22752;SDS011;11543;43.144;24.684;2023-06-05T05:55:52;5.53;;;4.20;;
22752;SDS011;11543;43.144;24.684;2023-06-05T05:58:19;8.60;;;4.10;;
22752;SDS011;11543;43.144;24.684;2023-06-05T06:00:44;9.98;;;4.75;;
22752;SDS011;11543;43.144;24.684;2023-06-05T06:03:10;7.60;;;4.32;;
22752;SDS011;11543;43.144;24.684;2023-06-05T06:05:36;6.25;;;4.28;;
22752;SDS011;11543;43.144;24.684;2023-06-05T06:08:02;7.95;;;4.20;;
22752;SDS011;11543;43.144;24.684;2023-06-05T06:10:28;8.60;;;4.30;;
22752;SDS011;11543;43.144;24.684;2023-06-05T06:12:56;6.95;;;4.07;;
22752;SDS011;11543;43.144;24.684;2023-06-05T06:15:21;6.28;;;4.28;;
22752;SDS011;11543;43.144;24.684;2023-06-05T06:17:47;7.88;;;4.15;;
22752;SDS011;11543;43.144;24.684;2023-06-05T06:20:13;10.25;;;4.28;;
22752;SDS011;11543;43.144;24.684;2023-06-05T06:22:41;9.48;;;4.38;;
22752;SDS011;11543;43.144;24.684;2023-06-05T06:25:07;7.15;;;4.15;;
22752;SDS011;11543;43.144;24.684;2023-06-05T06:27:35;8.82;;;3.88;;
22752;SDS011;11543;43.144;24.684;2023-06-05T06:30:02;6.50;;;3.50;;
22752;SDS011;11543;43.144;24.684;2023-06-05T06:32:29;10.90;;;4.20;;
22752;SDS011;11543;43.144;24.684;2023-06-05T06:34:57;8.90;;;4.90;;
22752;SDS011;11543;43.144;24.684;2023-06-05T06:37:24;10.40;;;4.03;;
22752;SDS011;11543;43.144;24.684;2023-06-05T06:39:50;8.15;;;4.45;;
22752;SDS011;11543;43.144;24.684;2023-06-05T06:42:16;6.13;;;4.18;;
22752;SDS011;11543;43.144;24.684;2023-06-05T06:44:41;10.93;;;4.18;;
22752;SDS011;11543;43.144;24.684;2023-06-05T06:47:07;8.77;;;4.13;;
22752;SDS011;11543;43.144;24.684;2023-06-05T06:49:33;9.63;;;3.67;;
22752;SDS011;11543;43.144;24.684;2023-06-05T06:52:02;6.20;;;3.97;;
22752;SDS011;11543;43.144;24.684;2023-06-05T06:54:27;7.47;;;4.13;;
22752;SDS011;11543;43.144;24.684;2023-06-05T06:56:54;9.63;;;4.20;;
22752;SDS011;11543;43.144;24.684;2023-06-05T06:59:20;10.52;;;3.70;;
22752;SDS011;11543;43.144;24.684;2023-06-05T07:02:08;6.57;;;3.38;;
22752;SDS011;11543;43.144;24.684;2023-06-05T07:04:43;5.00;;;3.80;;
22752;SDS011;11543;43.144;24.684;2023-06-05T07:07:09;8.38;;;3.80;;
22752;SDS011;11543;43.144;24.684;2023-06-05T07:09:39;9.05;;;3.90;;
22752;SDS011;11543;43.144;24.684;2023-06-05T07:12:08;9.20;;;3.60;;
22752;SDS011;11543;43.144;24.684;2023-06-05T07:14:35;7.63;;;3.67;;
22752;SDS011;11543;43.144;24.684;2023-06-05T07:17:01;7.05;;;3.45;;
22752;SDS011;11543;43.144;24.684;2023-06-05T07:19:27;5.93;;;3.00;;
22752;SDS011;11543;43.144;24.684;2023-06-05T07:21:55;9.95;;;3.70;;
22752;SDS011;11543;43.144;24.684;2023-06-05T07:24:22;6.97;;;3.50;;
22752;SDS011;11543;43.144;24.684;2023-06-05T07:26:53;6.97;;;3.55;;
22752;SDS011;11543;43.144;24.684;2023-06-05T07:29:20;4.23;;;3.03;;
22752;SDS011;11543;43.144;24.684;2023-06-05T07:31:49;9.63;;;3.60;;
22752;SDS011;11543;43.144;24.684;2023-06-05T07:34:15;6.45;;;3.38;;
22752;SDS011;11543;43.144;24.684;2023-06-05T07:36:44;7.10;;;3.30;;
22752;SDS011;11543;43.144;24.684;2023-06-05T07:39:10;5.72;;;3.40;;
22752;SDS011;11543;43.144;24.684;2023-06-05T07:41:37;5.90;;;3.10;;
22752;SDS011;11543;43.144;24.684;2023-06-05T07:44:03;4.93;;;3.38;;
22752;SDS011;11543;43.144;24.684;2023-06-05T07:46:44;6.50;;;3.25;;
22752;SDS011;11543;43.144;24.684;2023-06-05T07:49:37;6.85;;;2.90;;
22752;SDS011;11543;43.144;24.684;2023-06-05T07:52:02;5.28;;;2.88;;
22752;SDS011;11543;43.144;24.684;2023-06-05T07:58:19;5.15;;;2.83;;
22752;SDS011;11543;43.144;24.684;2023-06-05T08:00:47;5.68;;;2.97;;
22752;SDS011;11543;43.144;24.684;2023-06-05T08:03:22;4.82;;;2.58;;
22752;SDS011;11543;43.144;24.684;2023-06-05T08:05:49;6.75;;;3.10;;
22752;SDS011;11543;43.144;24.684;2023-06-05T08:08:18;7.35;;;2.70;;
22752;SDS011;11543;43.144;24.684;2023-06-05T08:10:46;7.70;;;2.88;;
22752;SDS011;11543;43.144;24.684;2023-06-05T08:15:43;4.82;;;2.42;;
22752;SDS011;11543;43.144;24.684;2023-06-05T08:18:09;10.35;;;3.00;;
22752;SDS011;11543;43.144;24.684;2023-06-05T08:20:34;7.82;;;2.65;;
22752;SDS011;11543;43.144;24.684;2023-06-05T10:07:52;4.57;;;2.20;;
22752;SDS011;11543;43.144;24.684;2023-06-05T10:10:19;4.10;;;2.42;;
22752;SDS011;11543;43.144;24.684;2023-06-05T10:12:45;4.15;;;2.70;;
22752;SDS011;11543;43.144;24.684;2023-06-05T10:15:11;6.47;;;2.63;;
22752;SDS011;11543;43.144;24.684;2023-06-05T10:17:37;5.75;;;2.53;;
22752;SDS011;11543;43.144;24.684;2023-06-05T10:20:05;4.15;;;2.25;;
22752;SDS011;11543;43.144;24.684;2023-06-05T10:22:32;7.93;;;2.30;;
22752;SDS011;11543;43.144;24.684;2023-06-05T10:25:00;3.13;;;2.20;;
22752;SDS011;11543;43.144;24.684;2023-06-05T10:33:21;6.22;;;2.50;;
22752;SDS011;11543;43.144;24.684;2023-06-05T10:39:05;6.00;;;2.03;;
22752;SDS011;11543;43.144;24.684;2023-06-05T10:41:43;4.63;;;1.90;;
22752;SDS011;11543;43.144;24.684;2023-06-05T10:44:42;3.78;;;2.10;;
22752;SDS011;11543;43.144;24.684;2023-06-05T10:52:47;4.07;;;1.80;;
22752;SDS011;11543;43.144;24.684;2023-06-05T11:00:28;4.68;;;1.45;;
22752;SDS011;11543;43.144;24.684;2023-06-05T11:02:54;5.00;;;1.77;;
22752;SDS011;11543;43.144;24.684;2023-06-05T16:38:49;6.35;;;3.35;;
22752;SDS011;11543;43.144;24.684;2023-06-05T16:41:27;6.07;;;3.10;;
22752;SDS011;11543;43.144;24.684;2023-06-05T16:43:52;5.32;;;2.70;;
22752;SDS011;11543;43.144;24.684;2023-06-05T16:46:20;7.15;;;2.42;;
22752;SDS011;11543;43.144;24.684;2023-06-05T16:48:48;4.43;;;2.70;;
22752;SDS011;11543;43.144;24.684;2023-06-05T16:51:17;8.10;;;2.50;;
22752;SDS011;11543;43.144;24.684;2023-06-05T16:53:43;8.73;;;2.30;;
22752;SDS011;11543;43.144;24.684;2023-06-05T16:56:14;4.22;;;2.10;;
22752;SDS011;11543;43.144;24.684;2023-06-05T16:58:40;4.03;;;2.05;;
22752;SDS011;11543;43.144;24.684;2023-06-05T17:01:10;5.20;;;1.90;;
22752;SDS011;11543;43.144;24.684;2023-06-05T17:03:38;5.78;;;1.98;;
22752;SDS011;11543;43.144;24.684;2023-06-05T17:06:04;3.40;;;1.85;;
22752;SDS011;11543;43.144;24.684;2023-06-05T17:08:32;3.13;;;1.85;;
22752;SDS011;11543;43.144;24.684;2023-06-05T17:11:08;4.93;;;1.90;;
22752;SDS011;11543;43.144;24.684;2023-06-05T17:13:33;3.92;;;1.90;;
22752;SDS011;11543;43.144;24.684;2023-06-05T17:15:59;4.35;;;1.80;;
22752;SDS011;11543;43.144;24.684;2023-06-05T17:18:27;4.78;;;2.10;;
22752;SDS011;11543;43.144;24.684;2023-06-05T17:20:52;4.32;;;1.88;;
22752;SDS011;11543;43.144;24.684;2023-06-05T17:23:23;9.95;;;1.95;;
22752;SDS011;11543;43.144;24.684;2023-06-05T17:26:01;5.57;;;2.10;;
22752;SDS011;11543;43.144;24.684;2023-06-05T17:28:36;5.63;;;2.30;;
22752;SDS011;11543;43.144;24.684;2023-06-05T17:31:04;7.13;;;2.90;;
22752;SDS011;11543;43.144;24.684;2023-06-05T17:33:30;8.30;;;3.55;;
22752;SDS011;11543;43.144;24.684;2023-06-05T17:35:56;6.78;;;3.10;;
22752;SDS011;11543;43.144;24.684;2023-06-05T17:38:22;5.60;;;2.63;;
22752;SDS011;11543;43.144;24.684;2023-06-05T17:40:47;4.72;;;2.35;;
22752;SDS011;11543;43.144;24.684;2023-06-05T17:43:13;6.85;;;2.55;;
22752;SDS011;11543;43.144;24.684;2023-06-05T17:45:39;6.05;;;2.75;;
22752;SDS011;11543;43.144;24.684;2023-06-05T17:48:04;7.38;;;3.20;;
22752;SDS011;11543;43.144;24.684;2023-06-05T17:57:50;6.10;;;2.85;;
22752;SDS011;11543;43.144;24.684;2023-06-05T18:00:38;5.22;;;2.60;;
22752;SDS011;11543;43.144;24.684;2023-06-05T18:03:09;5.80;;;2.30;;
22752;SDS011;11543;43.144;24.684;2023-06-05T18:05:35;6.13;;;2.40;;
22752;SDS011;11543;43.144;24.684;2023-06-05T18:08:04;6.60;;;2.42;;
22752;SDS011;11543;43.144;24.684;2023-06-05T18:10:30;6.57;;;2.40;;
22752;SDS011;11543;43.144;24.684;2023-06-05T18:12:55;5.95;;;2.20;;
22752;SDS011;11543;43.144;24.684;2023-06-05T18:15:21;3.30;;;2.22;;
22752;SDS011;11543;43.144;24.684;2023-06-05T18:17:48;4.28;;;2.00;;
22752;SDS011;11543;43.144;24.684;2023-06-05T18:20:14;4.63;;;2.45;;
22752;SDS011;11543;43.144;24.684;2023-06-05T18:22:42;6.55;;;2.47;;
22752;SDS011;11543;43.144;24.684;2023-06-05T18:25:09;4.20;;;2.30;;
22752;SDS011;11543;43.144;24.684;2023-06-05T18:27:56;4.63;;;2.10;;
22752;SDS011;11543;43.144;24.684;2023-06-05T18:30:42;8.57;;;2.50;;
22752;SDS011;11543;43.144;24.684;2023-06-05T18:33:15;3.92;;;2.10;;
22752;SDS011;11543;43.144;24.684;2023-06-05T18:36:06;9.27;;;2.30;;
22752;SDS011;11543;43.144;24.684;2023-06-05T18:38:31;10.18;;;2.30;;
22752;SDS011;11543;43.144;24.684;2023-06-05T18:41:02;6.40;;;2.05;;
22752;SDS011;11543;43.144;24.684;2023-06-05T18:43:41;5.72;;;2.67;;
22752;SDS011;11543;43.144;24.684;2023-06-05T18:46:09;7.25;;;3.20;;
22752;SDS011;11543;43.144;24.684;2023-06-05T18:48:39;7.15;;;3.55;;
22752;SDS011;11543;43.144;24.684;2023-06-05T18:51:08;6.43;;;3.88;;
22752;SDS011;11543;43.144;24.684;2023-06-05T18:57:15;7.88;;;3.75;;
22752;SDS011;11543;43.144;24.684;2023-06-05T18:59:57;8.13;;;3.60;;
22752;SDS011;11543;43.144;24.684;2023-06-05T19:08:38;9.77;;;3.45;;
22752;SDS011;11543;43.144;24.684;2023-06-05T19:11:04;6.53;;;3.15;;
22752;SDS011;11543;43.144;24.684;2023-06-05T19:13:30;7.28;;;2.60;;
22752;SDS011;11543;43.144;24.684;2023-06-05T19:15:58;5.68;;;2.70;;
22752;SDS011;11543;43.144;24.684;2023-06-05T19:18:39;7.68;;;2.72;;
22752;SDS011;11543;43.144;24.684;2023-06-05T19:21:17;7.93;;;2.63;;
22752;SDS011;11543;43.144;24.684;2023-06-05T19:23:45;10.85;;;2.92;;
22752;SDS011;11543;43.144;24.684;2023-06-05T19:26:20;5.05;;;2.50;;
22752;SDS011;11543;43.144;24.684;2023-06-05T19:28:54;10.73;;;3.20;;
22752;SDS011;11543;43.144;24.684;2023-06-05T19:31:35;8.35;;;3.10;;
22752;SDS011;11543;43.144;24.684;2023-06-05T19:37:07;7.38;;;3.17;;
22752;SDS011;11543;43.144;24.684;2023-06-05T19:42:35;5.07;;;3.33;;
22752;SDS011;11543;43.144;24.684;2023-06-05T19:45:11;4.85;;;2.70;;
22752;SDS011;11543;43.144;24.684;2023-06-05T19:47:37;5.68;;;2.72;;
22752;SDS011;11543;43.144;24.684;2023-06-05T19:50:09;7.80;;;3.03;;
22752;SDS011;11543;43.144;24.684;2023-06-05T19:52:34;8.68;;;3.20;;
22752;SDS011;11543;43.144;24.684;2023-06-05T19:55:00;9.57;;;3.35;;
22752;SDS011;11543;43.144;24.684;2023-06-05T19:57:26;6.85;;;3.80;;
22752;SDS011;11543;43.144;24.684;2023-06-05T19:59:53;10.02;;;3.70;;
22752;SDS011;11543;43.144;24.684;2023-06-05T20:02:30;5.68;;;3.30;;
22752;SDS011;11543;43.144;24.684;2023-06-05T20:04:56;5.88;;;3.15;;
22752;SDS011;11543;43.144;24.684;2023-06-05T20:07:24;7.97;;;3.33;;
22752;SDS011;11543;43.144;24.684;2023-06-05T20:09:49;7.03;;;3.50;;
22752;SDS011;11543;43.144;24.684;2023-06-05T20:12:15;7.68;;;3.33;;
22752;SDS011;11543;43.144;24.684;2023-06-05T20:14:41;7.97;;;2.67;;
22752;SDS011;11543;43.144;24.684;2023-06-05T20:17:06;4.63;;;2.60;;
22752;SDS011;11543;43.144;24.684;2023-06-05T20:19:32;5.63;;;2.78;;
22752;SDS011;11543;43.144;24.684;2023-06-05T20:25:17;9.00;;;2.75;;
22752;SDS011;11543;43.144;24.684;2023-06-05T20:27:52;6.63;;;3.03;;
22752;SDS011;11543;43.144;24.684;2023-06-05T20:30:22;7.55;;;3.03;;
22752;SDS011;11543;43.144;24.684;2023-06-05T20:43:29;6.88;;;3.03;;
22752;SDS011;11543;43.144;24.684;2023-06-05T20:46:35;8.43;;;3.38;;
22752;SDS011;11543;43.144;24.684;2023-06-05T20:49:21;7.00;;;3.30;;
22752;SDS011;11543;43.144;24.684;2023-06-05T20:58:38;7.75;;;3.30;;
22752;SDS011;11543;43.144;24.684;2023-06-05T21:04:27;9.07;;;2.92;;
22752;SDS011;11543;43.144;24.684;2023-06-05T21:06:56;5.30;;;2.72;;
22752;SDS011;11543;43.144;24.684;2023-06-05T21:09:23;4.95;;;2.95;;
22752;SDS011;11543;43.144;24.684;2023-06-05T21:12:10;8.15;;;2.75;;
22752;SDS011;11543;43.144;24.684;2023-06-05T21:14:35;9.40;;;2.80;;
22752;SDS011;11543;43.144;24.684;2023-06-05T21:17:12;4.80;;;2.70;;
22752;SDS011;11543;43.144;24.684;2023-06-05T21:19:59;6.60;;;2.92;;
22752;SDS011;11543;43.144;24.684;2023-06-05T21:22:44;7.43;;;2.50;;
22752;SDS011;11543;43.144;24.684;2023-06-05T21:25:13;6.65;;;2.60;;
22752;SDS011;11543;43.144;24.684;2023-06-05T21:28:04;7.85;;;2.60;;
22752;SDS011;11543;43.144;24.684;2023-06-05T21:30:31;4.30;;;2.30;;
22752;SDS011;11543;43.144;24.684;2023-06-05T21:39:05;4.93;;;2.80;;
22752;SDS011;11543;43.144;24.684;2023-06-05T21:41:30;6.07;;;2.85;;
22752;SDS011;11543;43.144;24.684;2023-06-05T21:50:43;5.50;;;2.58;;
22752;SDS011;11543;43.144;24.684;2023-06-05T21:57:00;8.10;;;3.10;;
22752;SDS011;11543;43.144;24.684;2023-06-05T22:10:15;7.03;;;2.90;;
22752;SDS011;11543;43.144;24.684;2023-06-05T22:13:21;5.60;;;2.75;;
22752;SDS011;11543;43.144;24.684;2023-06-05T22:16:45;7.25;;;2.70;;
22752;SDS011;11543;43.144;24.684;2023-06-05T22:19:53;4.90;;;3.00;;
22752;SDS011;11543;43.144;24.684;2023-06-05T22:26:33;5.80;;;2.90;;
22752;SDS011;11543;43.144;24.684;2023-06-05T22:30:03;5.85;;;2.83;;
22752;SDS011;11543;43.144;24.684;2023-06-05T22:33:15;4.85;;;2.80;;
22752;SDS011;11543;43.144;24.684;2023-06-05T23:03:12;4.22;;;3.05;;
22752;SDS011;11543;43.144;24.684;2023-06-05T23:05:39;7.63;;;3.17;;
22752;SDS011;11543;43.144;24.684;2023-06-05T23:08:05;6.13;;;2.83;;
22752;SDS011;11543;43.144;24.684;2023-06-05T23:10:35;8.85;;;3.60;;
22752;SDS011;11543;43.144;24.684;2023-06-05T23:13:03;5.60;;;3.13;;
22752;SDS011;11543;43.144;24.684;2023-06-05T23:15:34;7.25;;;2.88;;
22752;SDS011;11543;43.144;24.684;2023-06-05T23:18:12;5.88;;;3.05;;
22752;SDS011;11543;43.144;24.684;2023-06-05T23:20:39;8.73;;;3.45;;
22752;SDS011;11543;43.144;24.684;2023-06-05T23:23:05;8.77;;;3.53;;
22752;SDS011;11543;43.144;24.684;2023-06-05T23:25:32;6.43;;;3.40;;
22752;SDS011;11543;43.144;24.684;2023-06-05T23:59:11;10.55;;;3.65;;
